Pondicherry, India
Current Conditions -  °F | °C
As of 8:10 PM on Wednesday 26 Nov 2014 (Local Time) from VOMM Reporting Station
Few Clouds Few Clouds  
Wind Chill: 77°   Ceiling: Unl
Heat Index: 79°   Visibility: 4mi
Dew Point: 68°   Wind: 6mph
Humidity: 74%   Direction: 40°NE
Pressure: 29.85"   Gusts: NA
Location:  11.93°N, 79.88°E
Report Text: VOMM 261510Z 04005KT 6000 FEW020 25/20 Q1011 NOSIG
Loading
Personal Weather Stations






























Interactive Weather Map New forecast layout! Learn more

10-Day Weather Forecast

Advertisements
Track Severe Weather on mobile